Time;durP1;ratioP1;P1;durP2;ratioP2;P2;SDS_P1;SDS_P2;PMS_P1;PMS_P2;Temp;Humidity;BMP_temperature;BMP_pressure;BME280_temperature;BME280_humidity;BME280_pressure;Samples;Min_cycle;Max_cycle;Signal;HPM_P1;HPM_P2
2023/02/02 00:00:04;;;;;;;22.37;13.87;;;0.20;99.90;;;;;;5052976;28;20025;-76
2023/02/02 00:02:29;;;;;;;33.53;16.73;;;0.10;99.90;;;;;;5052995;28;20029;-77
2023/02/02 00:04:56;;;;;;;32.03;17.05;;;0.10;99.90;;;;;;5052755;28;20013;-77
2023/02/02 00:07:21;;;;;;;23.58;13.32;;;0.10;99.90;;;;;;5052824;28;20053;-78
2023/02/02 00:09:47;;;;;;;24.70;12.32;;;0.10;99.90;;;;;;5052045;28;20025;-84
2023/02/02 00:12:13;;;;;;;30.40;16.65;;;0.10;99.90;;;;;;5054944;28;20028;-85
2023/02/02 00:14:39;;;;;;;20.90;11.98;;;0.10;99.90;;;;;;5045260;28;20066;-77
2023/02/02 00:17:08;;;;;;;30.27;17.20;;;0.10;99.90;;;;;;5047895;28;20033;-77
2023/02/02 00:19:34;;;;;;;24.83;14.30;;;0.10;99.90;;;;;;5047022;28;20021;-77
2023/02/02 00:21:59;;;;;;;27.67;10.73;;;0.20;99.90;;;;;;5043202;28;20490;-77
2023/02/02 00:24:25;;;;;;;28.17;14.80;;;0.10;99.90;;;;;;5047527;28;20024;-77
2023/02/02 00:26:55;;;;;;;31.90;16.70;;;0.00;99.90;;;;;;5048919;28;20102;-78
2023/02/02 00:29:23;;;;;;;26.67;14.95;;;0.00;99.90;;;;;;5050309;28;20080;-79
2023/02/02 00:31:49;;;;;;;28.05;13.80;;;0.10;99.90;;;;;;5051713;28;20020;-78
2023/02/02 00:34:15;;;;;;;23.88;15.80;;;0.10;99.90;;;;;;5052210;28;20025;-77
2023/02/02 00:36:43;;;;;;;27.53;16.83;;;0.10;99.90;;;;;;5052356;28;20060;-78
2023/02/02 00:39:10;;;;;;;26.25;15.98;;;0.10;99.90;;;;;;5052352;28;20108;-75
2023/02/02 00:41:36;;;;;;;35.58;17.40;;;0.10;99.90;;;;;;5052331;28;20037;-77
2023/02/02 00:46:46;;;;;;;26.52;13.02;;;-0.10;99.90;;;;;;5051971;28;20502;-77
2023/02/02 00:49:12;;;;;;;28.23;15.77;;;-0.10;99.90;;;;;;5052173;28;20112;-77
2023/02/02 00:51:38;;;;;;;24.83;13.93;;;-0.20;99.90;;;;;;5051959;28;20075;-77
2023/02/02 00:54:04;;;;;;;26.95;14.85;;;-0.10;99.90;;;;;;5052488;28;20017;-77
2023/02/02 00:56:30;;;;;;;19.95;11.23;;;-0.10;99.90;;;;;;5052931;28;20125;-79
2023/02/02 00:58:55;;;;;;;27.40;15.40;;;0.00;99.90;;;;;;5050905;28;20491;-75
2023/02/02 01:01:22;;;;;;;26.95;14.73;;;-0.10;99.90;;;;;;5054459;28;20033;-77
2023/02/02 01:03:51;;;;;;;21.70;11.82;;;-0.10;99.90;;;;;;5054874;28;20032;-79
2023/02/02 01:06:17;;;;;;;27.17;15.50;;;-0.10;99.90;;;;;;5039661;28;20112;-77
2023/02/02 01:08:44;;;;;;;24.23;13.73;;;-0.20;99.90;;;;;;5041985;28;20036;-75
2023/02/02 01:11:09;;;;;;;23.27;12.68;;;-0.30;99.90;;;;;;5047766;28;20104;-77
2023/02/02 01:13:36;;;;;;;21.70;12.15;;;-0.30;99.90;;;;;;5042544;28;20096;-76
2023/02/02 01:16:03;;;;;;;20.75;11.15;;;-0.30;99.90;;;;;;5050786;28;20127;-76
2023/02/02 01:18:29;;;;;;;22.55;11.82;;;-0.30;99.90;;;;;;5051779;28;20028;-76
2023/02/02 01:21:05;;;;;;;14.27;8.45;;;-0.30;99.90;;;;;;5051869;28;20033;-76
2023/02/02 01:23:33;;;;;;;20.83;11.63;;;-0.30;99.90;;;;;;5052123;28;20017;-76
2023/02/02 01:26:00;;;;;;;20.88;13.25;;;-0.30;99.90;;;;;;5051817;28;20025;-75
2023/02/02 01:28:27;;;;;;;21.15;9.90;;;-0.30;99.90;;;;;;5051603;28;20027;-76
2023/02/02 01:30:54;;;;;;;24.83;11.85;;;-0.30;99.90;;;;;;5051644;28;20033;-76
2023/02/02 01:33:20;;;;;;;22.52;12.40;;;-0.40;99.90;;;;;;5051608;28;20563;-77
2023/02/02 01:35:51;;;;;;;22.83;13.20;;;-0.40;99.90;;;;;;5050763;28;20396;-76
2023/02/02 01:38:17;;;;;;;20.38;10.63;;;-0.40;99.90;;;;;;5048857;28;20021;-78
2023/02/02 01:40:45;;;;;;;23.52;11.63;;;-0.40;99.90;;;;;;5033637;28;20399;-76
2023/02/02 01:43:23;;;;;;;24.10;12.98;;;-0.40;99.90;;;;;;5051524;28;20025;-74
2023/02/02 01:45:50;;;;;;;24.45;12.88;;;-0.40;99.90;;;;;;5050714;28;20032;-76
2023/02/02 01:48:23;;;;;;;26.80;14.60;;;-0.40;99.90;;;;;;5051448;28;20800;-76
2023/02/02 01:50:52;;;;;;;23.60;13.57;;;-0.40;99.90;;;;;;5051458;28;20398;-76
2023/02/02 01:53:19;;;;;;;23.20;12.68;;;-0.40;99.90;;;;;;5051391;28;20028;-77
2023/02/02 01:55:46;;;;;;;27.02;15.13;;;-0.40;99.90;;;;;;5051110;28;20036;-75
2023/02/02 01:58:23;;;;;;;26.53;14.27;;;-0.30;99.90;;;;;;5033135;28;20040;-76
2023/02/02 02:00:49;;;;;;;26.60;12.82;;;-0.30;99.90;;;;;;5039235;28;20021;-76
2023/02/02 02:03:18;;;;;;;18.35;10.38;;;-0.30;99.90;;;;;;5050989;28;20039;-75
2023/02/02 02:05:50;;;;;;;28.05;15.43;;;-0.30;99.90;;;;;;5051058;28;20113;-77
2023/02/02 02:08:29;;;;;;;23.70;13.48;;;-0.30;99.90;;;;;;5050285;28;20040;-76
2023/02/02 02:10:56;;;;;;;20.67;11.70;;;-0.20;99.90;;;;;;5025760;28;20029;-76
2023/02/02 02:16:17;;;;;;;24.23;13.95;;;-0.20;99.90;;;;;;5049000;28;20021;-75
2023/02/02 02:16:38;;;;;;;29.73;16.15;;;-0.20;99.90;;;;;;5042427;28;20427;-76
2023/02/02 02:19:19;;;;;;;27.92;13.77;;;-0.20;99.90;;;;;;5047260;28;20104;-75
2023/02/02 02:28:12;;;;;;;24.52;12.68;;;-0.20;99.90;;;;;;5048092;28;20031;-75
2023/02/02 02:30:47;;;;;;;23.92;13.32;;;-0.20;99.90;;;;;;5038232;28;20428;-76
2023/02/02 02:33:47;;;;;;;25.45;14.35;;;-0.30;99.90;;;;;;5047230;28;20470;-75
2023/02/02 02:36:24;;;;;;;23.95;11.73;;;-0.30;99.90;;;;;;5050674;28;20029;-76
2023/02/02 02:39:02;;;;;;;22.73;13.23;;;-0.30;99.90;;;;;;5050610;28;20071;-76
2023/02/02 02:41:33;;;;;;;23.98;12.00;;;-0.30;99.90;;;;;;5050676;28;20327;-75
2023/02/02 02:44:03;;;;;;;23.55;13.88;;;-0.30;99.90;;;;;;5054417;28;20362;-76
2023/02/02 02:46:30;;;;;;;26.67;13.55;;;-0.30;99.90;;;;;;5054433;28;20021;-76
2023/02/02 02:49:00;;;;;;;25.17;13.80;;;-0.30;99.90;;;;;;5042346;28;20055;-76
2023/02/02 02:51:44;;;;;;;23.58;11.68;;;-0.30;99.90;;;;;;5054515;28;20036;-75
2023/02/02 02:54:25;;;;;;;23.33;12.20;;;-0.30;99.90;;;;;;5043840;28;20032;-77
2023/02/02 02:57:00;;;;;;;20.70;12.23;;;-0.40;99.60;;;;;;5054226;28;20392;-75
2023/02/02 02:59:49;;;;;;;21.42;11.18;;;-0.40;99.40;;;;;;5054172;28;20028;-76
2023/02/02 03:02:50;;;;;;;13.98;6.90;;;-0.40;99.40;;;;;;5050735;28;20033;-76
2023/02/02 03:05:28;;;;;;;27.92;13.18;;;-0.40;99.20;;;;;;5038342;28;20030;-76
2023/02/02 03:08:14;;;;;;;24.60;11.75;;;-0.50;99.10;;;;;;5053833;28;20450;-77
2023/02/02 03:10:43;;;;;;;21.08;12.13;;;-0.50;99.30;;;;;;5033058;28;20040;-77
2023/02/02 03:13:11;;;;;;;14.23;7.53;;;-0.40;99.30;;;;;;5053699;28;20128;-76
2023/02/02 03:15:41;;;;;;;21.73;12.93;;;-0.40;99.30;;;;;;5053916;28;20037;-76
2023/02/02 03:18:07;;;;;;;15.70;9.40;;;-0.40;99.10;;;;;;5052333;28;20029;-76
2023/02/02 03:20:33;;;;;;;17.50;10.40;;;-0.50;99.00;;;;;;5048147;28;20049;-77
2023/02/02 03:22:59;;;;;;;17.08;10.50;;;-0.50;99.20;;;;;;5053752;28;20017;-76
2023/02/02 03:25:25;;;;;;;29.10;16.10;;;-0.40;99.40;;;;;;5053643;28;20013;-74
2023/02/02 03:27:52;;;;;;;28.63;14.40;;;-0.40;99.50;;;;;;5053766;28;20025;-77
2023/02/02 03:30:18;;;;;;;26.38;14.02;;;-0.50;99.40;;;;;;5035591;28;20024;-76
2023/02/02 03:32:45;;;;;;;23.23;12.27;;;-0.40;99.60;;;;;;5053567;28;20107;-75
2023/02/02 03:35:11;;;;;;;23.42;12.45;;;-0.40;99.50;;;;;;5053406;28;20095;-75
2023/02/02 03:37:37;;;;;;;22.27;13.18;;;-0.40;99.60;;;;;;5044276;28;20037;-74
2023/02/02 03:40:04;;;;;;;18.90;10.00;;;-0.30;99.30;;;;;;5053311;28;20396;-75
2023/02/02 03:42:30;;;;;;;21.38;13.13;;;-0.30;99.10;;;;;;5053004;28;20045;-73
2023/02/02 03:44:56;;;;;;;25.98;12.07;;;-0.40;99.00;;;;;;5053092;28;20059;-75
2023/02/02 03:47:22;;;;;;;24.15;11.95;;;-0.30;99.30;;;;;;5049772;28;20035;-74
2023/02/02 03:49:47;;;;;;;25.70;12.65;;;-0.30;99.30;;;;;;5053102;28;20079;-75
2023/02/02 03:52:13;;;;;;;23.55;11.75;;;-0.30;99.10;;;;;;5052709;28;20021;-76
2023/02/02 03:54:39;;;;;;;20.85;12.77;;;-0.20;99.00;;;;;;5051745;28;20483;-75
2023/02/02 03:57:05;;;;;;;28.67;14.48;;;-0.30;98.90;;;;;;5052776;28;20526;-75
2023/02/02 03:59:31;;;;;;;25.15;12.23;;;-0.30;98.80;;;;;;5052889;28;20466;-75
2023/02/02 04:01:56;;;;;;;24.55;12.90;;;-0.30;98.90;;;;;;5052447;28;20028;-77
2023/02/02 04:04:22;;;;;;;28.52;12.65;;;-0.30;99.00;;;;;;5052595;28;20039;-74
2023/02/02 04:06:48;;;;;;;27.67;13.48;;;-0.30;99.00;;;;;;5052725;28;20096;-77
2023/02/02 04:09:14;;;;;;;25.90;14.05;;;-0.30;99.00;;;;;;5047891;28;20416;-75
2023/02/02 04:11:39;;;;;;;25.00;12.98;;;-0.30;99.00;;;;;;5052483;28;20049;-75
2023/02/02 04:14:06;;;;;;;25.05;15.18;;;-0.30;99.10;;;;;;5052333;28;20447;-75
2023/02/02 04:16:34;;;;;;;22.65;11.82;;;-0.20;99.10;;;;;;5045457;28;20032;-75
2023/02/02 04:19:00;;;;;;;26.80;13.55;;;-0.20;99.10;;;;;;5034382;28;20025;-76
2023/02/02 04:21:26;;;;;;;23.98;11.93;;;-0.20;99.00;;;;;;5052241;28;20029;-75
2023/02/02 04:23:52;;;;;;;24.40;15.38;;;-0.20;98.90;;;;;;5052595;28;20028;-75
2023/02/02 04:26:18;;;;;;;25.08;13.90;;;-0.20;99.10;;;;;;5052030;28;20025;-75
2023/02/02 04:28:43;;;;;;;26.27;15.35;;;-0.10;99.20;;;;;;5047154;28;20076;-76
2023/02/02 04:31:09;;;;;;;33.75;16.85;;;-0.10;99.10;;;;;;5049933;28;20013;-76
2023/02/02 04:33:35;;;;;;;27.30;13.77;;;-0.10;99.10;;;;;;5051923;28;20380;-75
2023/02/02 04:36:01;;;;;;;27.52;16.45;;;-0.10;99.20;;;;;;5052074;28;20036;-75
2023/02/02 04:38:27;;;;;;;25.50;14.18;;;-0.20;99.30;;;;;;5051814;28;20016;-76
2023/02/02 04:40:53;;;;;;;24.95;14.65;;;-0.20;99.30;;;;;;5051951;28;20075;-76
2023/02/02 04:43:18;;;;;;;27.67;14.95;;;-0.20;99.50;;;;;;5051938;28;20025;-75
2023/02/02 04:45:44;;;;;;;33.78;15.75;;;-0.30;99.60;;;;;;5051089;28;20086;-74
2023/02/02 04:48:10;;;;;;;29.80;14.40;;;-0.30;99.80;;;;;;5051895;28;20506;-76
2023/02/02 04:50:36;;;;;;;31.83;15.80;;;-0.30;99.90;;;;;;5051832;28;20028;-75
2023/02/02 04:53:03;;;;;;;30.17;17.90;;;-0.30;99.90;;;;;;5051632;28;20025;-74
2023/02/02 04:55:28;;;;;;;31.13;16.05;;;-0.30;99.90;;;;;;5050316;28;20099;-77
2023/02/02 04:57:54;;;;;;;30.65;14.73;;;-0.20;99.90;;;;;;5051810;28;20123;-76
2023/02/02 05:00:20;;;;;;;37.45;17.50;;;-0.20;99.90;;;;;;5051597;28;20021;-77
2023/02/02 05:02:46;;;;;;;31.90;17.95;;;-0.20;99.90;;;;;;5051437;28;20057;-76
2023/02/02 05:05:13;;;;;;;30.02;17.70;;;-0.30;99.90;;;;;;5051148;28;20031;-76
2023/02/02 05:07:41;;;;;;;30.40;19.15;;;-0.20;99.90;;;;;;5039436;28;20037;-76
2023/02/02 05:10:07;;;;;;;33.38;19.10;;;-0.30;99.90;;;;;;5050701;28;20037;-77
2023/02/02 05:12:33;;;;;;;41.13;20.38;;;-0.20;99.90;;;;;;5049813;28;20021;-78
2023/02/02 05:14:59;;;;;;;31.00;17.27;;;-0.20;99.90;;;;;;5049012;28;20083;-77
2023/02/02 05:17:26;;;;;;;35.92;20.08;;;-0.20;99.90;;;;;;5050842;28;20043;-76
2023/02/02 05:19:52;;;;;;;30.60;17.23;;;-0.20;99.90;;;;;;5051469;28;20082;-76
2023/02/02 05:22:18;;;;;;;36.58;19.42;;;-0.20;99.90;;;;;;5051052;28;20017;-77
2023/02/02 05:24:43;;;;;;;35.85;16.88;;;-0.30;99.90;;;;;;5047620;28;20097;-75
2023/02/02 05:27:09;;;;;;;34.40;19.17;;;-0.20;99.90;;;;;;5045626;28;20437;-77
2023/02/02 05:29:35;;;;;;;38.80;20.98;;;-0.30;99.90;;;;;;5051281;28;20021;-77
2023/02/02 05:32:01;;;;;;;37.28;19.05;;;-0.30;99.90;;;;;;5051127;28;20435;-76
2023/02/02 05:34:27;;;;;;;40.95;20.45;;;-0.30;99.90;;;;;;5051205;28;20056;-78
2023/02/02 05:36:52;;;;;;;39.42;22.35;;;-0.30;99.90;;;;;;5051191;28;20124;-78
2023/02/02 05:39:18;;;;;;;40.42;19.45;;;-0.20;99.90;;;;;;5051215;28;20021;-76
2023/02/02 05:41:44;;;;;;;34.90;18.48;;;-0.20;99.90;;;;;;5050791;28;20025;-75
2023/02/02 05:44:13;;;;;;;34.22;19.42;;;-0.10;99.90;;;;;;5048335;28;20017;-75
2023/02/02 05:46:40;;;;;;;39.47;19.42;;;-0.10;99.90;;;;;;5047370;28;20109;-77
2023/02/02 05:49:06;;;;;;;34.80;18.80;;;0.00;99.90;;;;;;5051123;28;20033;-76
2023/02/02 05:51:48;;;;;;;36.78;20.67;;;0.00;99.90;;;;;;5050878;28;20082;-77
2023/02/02 05:54:18;;;;;;;36.63;17.95;;;0.00;99.90;;;;;;5043300;28;20028;-75
2023/02/02 05:56:45;;;;;;;38.95;20.23;;;0.00;99.90;;;;;;5032821;28;20041;-76
2023/02/02 05:59:10;;;;;;;33.97;20.58;;;0.00;99.90;;;;;;5051126;28;20378;-75
2023/02/02 06:01:36;;;;;;;29.90;17.63;;;0.00;99.90;;;;;;5050895;28;20029;-76
2023/02/02 06:04:02;;;;;;;35.22;18.83;;;0.00;99.90;;;;;;5050993;28;20438;-77
2023/02/02 06:06:28;;;;;;;31.58;18.35;;;0.00;99.90;;;;;;5050729;28;20036;-75
2023/02/02 06:08:53;;;;;;;34.92;18.23;;;0.10;99.90;;;;;;5032982;28;20116;-77
2023/02/02 06:11:19;;;;;;;37.00;20.08;;;0.10;99.90;;;;;;5044356;28;20032;-75
2023/02/02 06:13:45;;;;;;;35.65;19.13;;;0.10;99.90;;;;;;5050785;28;20032;-77
2023/02/02 06:16:11;;;;;;;36.17;18.73;;;0.20;99.90;;;;;;5034785;28;20037;-76
2023/02/02 06:18:37;;;;;;;31.10;18.70;;;0.20;99.90;;;;;;5054575;28;20017;-77
2023/02/02 06:21:05;;;;;;;35.63;18.15;;;0.30;99.90;;;;;;5054081;28;20032;-76
2023/02/02 06:23:32;;;;;;;31.90;19.10;;;0.30;99.90;;;;;;5054889;28;20021;-77
2023/02/02 06:25:58;;;;;;;36.08;19.67;;;0.30;99.80;;;;;;5036547;28;20021;-77
2023/02/02 06:28:24;;;;;;;38.70;17.90;;;0.30;99.90;;;;;;5054311;28;20028;-75
2023/02/02 06:30:50;;;;;;;34.70;18.95;;;0.30;99.90;;;;;;5054390;28;20388;-78
2023/02/02 06:33:16;;;;;;;28.77;18.10;;;0.30;99.70;;;;;;5054648;28;20103;-77
2023/02/02 06:35:42;;;;;;;32.28;19.10;;;0.30;99.70;;;;;;5052660;28;20033;-77
2023/02/02 06:38:07;;;;;;;39.15;21.88;;;0.30;99.70;;;;;;5053389;28;20469;-76
2023/02/02 06:40:34;;;;;;;33.35;15.70;;;0.30;99.90;;;;;;5054479;28;20112;-77
2023/02/02 06:43:01;;;;;;;35.78;20.58;;;0.40;99.90;;;;;;5054113;28;20056;-77
2023/02/02 06:45:28;;;;;;;;;;;0.50;99.70;;;;;;5054465;28;20365;-77
2023/02/02 06:47:57;;;;;;;32.15;17.83;;;0.50;99.70;;;;;;5054215;28;19915;-76
2023/02/02 06:50:23;;;;;;;40.00;19.85;;;0.60;99.60;;;;;;5054005;28;20013;-77
2023/02/02 06:52:50;;;;;;;29.95;17.83;;;0.60;99.50;;;;;;5054017;28;20044;-75
2023/02/02 06:55:16;;;;;;;36.30;19.50;;;0.60;99.40;;;;;;5053873;28;20052;-77
2023/02/02 06:57:42;;;;;;;41.38;18.17;;;0.70;99.50;;;;;;5054044;28;20496;-77
2023/02/02 07:00:09;;;;;;;33.13;20.15;;;0.70;99.20;;;;;;5035689;28;20487;-78
2023/02/02 07:02:35;;;;;;;39.13;19.47;;;0.60;99.20;;;;;;5053412;28;20035;-78
2023/02/02 07:05:01;;;;;;;39.83;21.15;;;0.60;99.10;;;;;;5053591;28;20033;-75
2023/02/02 07:07:30;;;;;;;30.92;18.05;;;0.60;98.90;;;;;;5053413;28;20056;-77
2023/02/02 07:09:56;;;;;;;37.83;21.50;;;0.50;99.10;;;;;;5035568;28;20032;-79
2023/02/02 07:12:23;;;;;;;42.40;19.52;;;0.60;99.20;;;;;;5035688;28;20029;-78
2023/02/02 07:14:49;;;;;;;34.45;19.48;;;0.60;99.20;;;;;;5053754;28;20075;-77
2023/02/02 07:17:15;;;;;;;36.28;22.08;;;0.70;99.10;;;;;;5053308;28;20068;-78
2023/02/02 07:19:41;;;;;;;30.05;17.58;;;0.70;98.90;;;;;;5053738;28;20541;-76
2023/02/02 07:22:07;;;;;;;32.25;19.05;;;0.70;98.90;;;;;;5048378;28;20033;-77
2023/02/02 07:24:32;;;;;;;31.95;18.27;;;0.70;98.90;;;;;;5052671;28;20024;-78
2023/02/02 07:26:58;;;;;;;27.95;17.08;;;0.80;98.90;;;;;;5049489;28;20492;-78
2023/02/02 07:29:24;;;;;;;24.15;14.50;;;0.80;98.70;;;;;;5052934;28;20048;-78
2023/02/02 07:31:50;;;;;;;33.45;18.50;;;0.50;98.10;;;;;;5036746;28;20037;-77
2023/02/02 07:34:16;;;;;;;28.17;14.50;;;0.40;98.70;;;;;;5044149;28;20032;-77
2023/02/02 07:36:42;;;;;;;30.05;17.38;;;0.40;98.90;;;;;;5042797;28;20034;-77
2023/02/02 07:39:08;;;;;;;35.72;20.48;;;0.40;98.90;;;;;;5044531;28;20019;-77
2023/02/02 07:41:35;;;;;;;32.58;16.27;;;0.30;98.90;;;;;;5052392;28;20025;-78
2023/02/02 07:44:01;;;;;;;;;;;0.40;99.00;;;;;;5053482;28;20545;-77
2023/02/02 07:46:27;;;;;;;30.67;16.95;;;0.30;98.80;;;;;;5047250;28;19909;-84
2023/02/02 07:48:54;;;;;;;35.63;16.90;;;0.20;98.90;;;;;;5046609;28;20373;-77
2023/02/02 07:51:21;;;;;;;27.65;13.73;;;0.20;99.00;;;;;;5042463;28;20026;-78
2023/02/02 07:53:49;;;;;;;27.40;15.07;;;0.20;99.00;;;;;;5051368;28;20028;-76
2023/02/02 07:56:20;;;;;;;26.77;15.98;;;0.20;99.10;;;;;;5032674;28;20183;-79
2023/02/02 07:58:46;;;;;;;36.22;18.15;;;0.30;99.30;;;;;;5044265;28;20386;-79
2023/02/02 08:01:14;;;;;;;30.45;18.65;;;0.40;99.30;;;;;;5045493;28;20025;-78
2023/02/02 08:03:44;;;;;;;34.75;18.05;;;0.50;99.20;;;;;;5046491;28;20484;-79
2023/02/02 08:06:23;;;;;;;27.08;13.32;;;0.60;99.10;;;;;;5047361;28;20033;-78
2023/02/02 08:08:50;;;;;;;29.75;16.60;;;0.60;98.60;;;;;;5047774;28;20048;-78
2023/02/02 08:11:18;;;;;;;32.75;16.85;;;0.40;98.40;;;;;;5050737;28;20031;-81
2023/02/02 08:13:47;;;;;;;30.30;15.48;;;0.40;98.80;;;;;;5039562;28;20025;-79
2023/02/02 08:16:13;;;;;;;29.52;15.63;;;0.40;98.60;;;;;;5050521;28;20490;-79
2023/02/02 08:18:39;;;;;;;30.13;15.75;;;0.40;98.90;;;;;;5049078;28;20100;-78
2023/02/02 08:21:07;;;;;;;30.70;17.52;;;0.30;98.30;;;;;;5048668;28;20040;-79
2023/02/02 08:23:35;;;;;;;30.55;19.63;;;0.40;98.80;;;;;;5052599;28;20087;-78
2023/02/02 08:26:10;;;;;;;36.33;18.42;;;0.40;98.60;;;;;;5047480;28;20021;-80
2023/02/02 08:28:36;;;;;;;25.25;17.13;;;0.50;98.70;;;;;;5049844;28;20029;-77
2023/02/02 08:31:11;;;;;;;27.50;14.98;;;0.60;98.00;;;;;;5047038;28;20096;-79
2023/02/02 08:33:37;;;;;;;24.42;14.13;;;0.60;98.20;;;;;;5049749;28;20108;-78
2023/02/02 08:36:03;;;;;;;30.30;18.02;;;0.70;98.10;;;;;;5046990;28;20033;-79
2023/02/02 08:38:29;;;;;;;23.00;14.20;;;0.70;97.70;;;;;;5049753;28;20096;-78
2023/02/02 08:40:56;;;;;;;28.55;16.33;;;0.80;98.00;;;;;;5017372;28;20132;-80
2023/02/02 08:43:22;;;;;;;29.13;15.85;;;0.90;97.90;;;;;;5052447;28;20460;-79
2023/02/02 08:45:49;;;;;;;23.83;15.98;;;1.00;97.40;;;;;;5050852;28;20108;-79
2023/02/02 08:48:15;;;;;;;21.98;12.57;;;1.00;96.80;;;;;;5052173;28;20055;-78
2023/02/02 08:50:41;;;;;;;24.73;13.38;;;1.00;95.60;;;;;;5052303;28;20023;-79
2023/02/02 08:53:07;;;;;;;23.90;12.90;;;0.80;95.70;;;;;;5049739;28;20033;-79
2023/02/02 08:55:33;;;;;;;27.58;15.65;;;0.60;96.20;;;;;;5028921;28;20024;-80
2023/02/02 08:57:59;;;;;;;24.83;14.05;;;0.70;96.60;;;;;;5030496;28;20086;-78
2023/02/02 09:00:25;;;;;;;26.58;13.68;;;0.90;96.70;;;;;;5045285;28;20017;-80
2023/02/02 09:02:50;;;;;;;29.38;14.05;;;0.90;95.60;;;;;;5048678;28;20505;-79
2023/02/02 09:05:16;;;;;;;28.77;15.55;;;0.90;95.90;;;;;;5045177;28;20018;-78
2023/02/02 09:07:43;;;;;;;28.40;15.07;;;0.90;95.60;;;;;;5048320;28;20049;-78
2023/02/02 09:10:09;;;;;;;22.52;13.43;;;0.80;95.40;;;;;;5046244;28;20025;-77
2023/02/02 09:12:35;;;;;;;30.15;15.65;;;0.90;95.50;;;;;;5047393;28;20440;-79
2023/02/02 09:15:01;;;;;;;23.85;12.85;;;1.20;96.00;;;;;;5048328;28;20029;-77
2023/02/02 09:17:30;;;;;;;24.48;15.20;;;1.40;94.80;;;;;;5044878;28;20037;-79
2023/02/02 09:19:56;;;;;;;30.73;15.52;;;1.50;94.80;;;;;;5051492;28;20024;-79
2023/02/02 09:22:22;;;;;;;29.38;16.98;;;1.60;95.10;;;;;;5044598;28;20037;-79
2023/02/02 09:24:48;;;;;;;27.40;16.15;;;2.00;95.10;;;;;;5048241;28;20369;-78
2023/02/02 09:27:14;;;;;;;30.70;19.25;;;2.30;94.60;;;;;;5045515;28;20083;-78
2023/02/02 09:29:39;;;;;;;24.13;15.63;;;2.70;94.30;;;;;;5047607;28;20104;-78
2023/02/02 09:32:05;;;;;;;17.63;9.20;;;2.60;92.60;;;;;;5047493;28;20391;-78
2023/02/02 09:34:31;;;;;;;16.83;9.98;;;2.40;91.30;;;;;;5041682;28;20071;-79
2023/02/02 09:36:57;;;;;;;23.45;12.52;;;2.10;91.40;;;;;;5041033;28;20033;-78
2023/02/02 09:39:23;;;;;;;23.63;14.20;;;2.20;92.40;;;;;;5041606;28;20052;-78
2023/02/02 09:42:01;;;;;;;23.05;13.77;;;2.60;92.30;;;;;;5030701;28;20029;-77
2023/02/02 09:44:39;;;;;;;21.00;11.77;;;2.90;92.10;;;;;;5036469;28;20840;-80
2023/02/02 09:47:22;;;;;;;22.58;13.55;;;2.90;90.80;;;;;;5041226;28;20012;-80
2023/02/02 09:50:15;;;;;;;24.88;13.98;;;2.40;90.70;;;;;;5026803;28;20036;-79
2023/02/02 09:52:54;;;;;;;19.38;10.57;;;2.00;91.30;;;;;;5041540;28;20425;-80
2023/02/02 09:55:33;;;;;;;19.42;11.55;;;1.60;91.60;;;;;;5052962;28;20026;-79
2023/02/02 09:58:23;;;;;;;21.67;11.35;;;1.30;92.50;;;;;;5049126;28;20041;-80
2023/02/02 10:01:15;;;;;;;28.48;13.98;;;1.20;93.00;;;;;;5047397;28;20021;-78
2023/02/02 10:04:15;;;;;;;25.98;14.23;;;1.20;92.80;;;;;;5049858;28;20017;-80
2023/02/02 10:06:47;;;;;;;26.13;15.60;;;1.30;93.10;;;;;;5029716;28;20376;-78
2023/02/02 10:09:38;;;;;;;22.88;14.80;;;1.20;93.30;;;;;;5051045;28;20040;-78
2023/02/02 10:12:45;;;;;;;25.85;15.88;;;1.30;93.60;;;;;;5043080;28;20362;-79
2023/02/02 10:15:25;;;;;;;29.55;16.23;;;1.60;93.60;;;;;;5040213;28;20055;-78
2023/02/02 10:18:03;;;;;;;25.45;13.32;;;1.60;93.20;;;;;;5041416;28;20036;-78
2023/02/02 10:20:53;;;;;;;31.30;17.90;;;1.50;93.20;;;;;;5034622;28;20030;-82
2023/02/02 10:23:33;;;;;;;30.83;16.80;;;1.50;93.60;;;;;;5044794;28;20379;-80
2023/02/02 10:26:25;;;;;;;31.88;18.25;;;1.70;93.60;;;;;;5049689;28;20013;-81
2023/02/02 10:29:09;;;;;;;28.30;18.67;;;1.80;93.40;;;;;;5035449;28;20388;-79
2023/02/02 10:31:47;;;;;;;34.25;18.45;;;1.70;93.30;;;;;;5042253;28;20131;-80
2023/02/02 10:34:22;;;;;;;31.30;16.55;;;1.90;93.30;;;;;;5049165;28;20092;-81
2023/02/02 10:37:20;;;;;;;30.85;17.17;;;1.90;93.20;;;;;;5043202;28;20045;-82
2023/02/02 10:40:36;;;;;;;34.80;17.77;;;2.10;92.90;;;;;;5052941;28;20087;-79
2023/02/02 10:43:45;;;;;;;30.67;18.60;;;2.00;92.80;;;;;;4987251;28;20089;-81
2023/02/02 10:46:34;;;;;;;32.83;20.40;;;1.90;93.00;;;;;;4973994;28;20115;-81
2023/02/02 10:49:27;;;;;;;34.25;17.23;;;2.10;93.20;;;;;;4973396;28;20031;-79
2023/02/02 10:52:16;;;;;;;28.40;18.50;;;2.30;92.80;;;;;;4973235;28;20094;-77
2023/02/02 10:55:09;;;;;;;30.38;16.02;;;2.20;92.30;;;;;;4973431;28;20038;-78
2023/02/02 10:58:12;;;;;;;39.80;22.83;;;2.20;92.40;;;;;;4973372;28;20098;-78
2023/02/02 11:00:46;;;;;;;29.63;16.70;;;2.10;92.50;;;;;;4971764;28;20027;-78
2023/02/02 11:03:14;;;;;;;32.40;18.13;;;2.10;92.30;;;;;;4972204;28;20037;-79
2023/02/02 11:08:40;;;;;;;26.17;16.13;;;2.10;92.50;;;;;;4973167;28;20142;-78
2023/02/02 11:11:21;;;;;;;29.65;18.98;;;2.10;92.30;;;;;;4972668;28;20129;-80
2023/02/02 11:13:51;;;;;;;30.50;17.17;;;2.10;92.50;;;;;;4956371;28;20049;-81
2023/02/02 11:16:20;;;;;;;26.85;18.83;;;2.20;92.60;;;;;;4996565;28;20059;-79
2023/02/02 11:18:46;;;;;;;32.55;20.17;;;2.20;92.50;;;;;;5035908;28;20025;-82
2023/02/02 11:21:19;;;;;;;30.67;20.40;;;2.30;92.50;;;;;;5051776;28;20480;-78
2023/02/02 11:24:00;;;;;;;31.75;16.40;;;2.50;92.40;;;;;;5050851;28;20032;-79
2023/02/02 11:26:39;;;;;;;32.63;19.73;;;2.30;91.80;;;;;;5040489;28;20103;-83
2023/02/02 11:29:13;;;;;;;34.60;21.38;;;2.20;92.10;;;;;;5049429;28;20451;-78
2023/02/02 11:31:39;;;;;;;31.65;18.92;;;2.30;92.30;;;;;;5051642;28;20499;-79
2023/02/02 11:34:19;;;;;;;33.97;19.55;;;2.30;92.40;;;;;;5049677;28;20036;-79
2023/02/02 11:37:11;;;;;;;29.80;18.08;;;2.40;92.40;;;;;;5041203;28;20029;-78
2023/02/02 11:39:38;;;;;;;67.22;30.52;;;2.40;92.30;;;;;;5040573;28;20036;-78
2023/02/02 11:42:26;;;;;;;35.83;20.00;;;2.40;92.20;;;;;;5051601;28;20476;-77
2023/02/02 11:44:58;;;;;;;29.38;16.02;;;2.30;92.20;;;;;;5051978;28;20028;-77
2023/02/02 11:47:27;;;;;;;33.45;20.67;;;2.30;92.00;;;;;;5050524;28;20017;-77
2023/02/02 11:49:54;;;;;;;32.75;18.02;;;2.10;92.00;;;;;;5050408;28;20025;-86
2023/02/02 11:52:23;;;;;;;35.80;18.77;;;2.00;92.20;;;;;;5052408;28;20025;-86
2023/02/02 11:55:00;;;;;;;30.77;19.90;;;2.00;92.40;;;;;;5034571;28;20059;-87
2023/02/02 11:57:28;;;;;;;31.50;19.08;;;2.00;92.60;;;;;;5048398;28;20093;-86
2023/02/02 12:00:19;;;;;;;29.80;19.33;;;2.10;92.40;;;;;;5047859;28;20025;-78
2023/02/02 12:02:47;;;;;;;31.92;20.88;;;2.10;92.60;;;;;;5044403;28;20487;-78
2023/02/02 12:05:32;;;;;;;29.23;18.65;;;2.20;92.60;;;;;;5047282;28;20488;-78
2023/02/02 12:07:59;;;;;;;26.23;16.35;;;2.30;92.40;;;;;;5034813;28;20102;-77
2023/02/02 12:10:27;;;;;;;34.97;18.58;;;2.30;92.20;;;;;;5047264;28;20022;-77
2023/02/02 12:13:17;;;;;;;29.45;17.10;;;2.30;92.20;;;;;;5050676;28;20024;-78
2023/02/02 12:16:08;;;;;;;32.75;19.48;;;2.30;92.20;;;;;;5033888;28;20484;-79
2023/02/02 12:19:04;;;;;;;32.85;17.70;;;2.30;92.10;;;;;;5045519;28;20056;-80
2023/02/02 12:21:46;;;;;;;26.80;17.48;;;2.20;92.00;;;;;;5047268;28;20024;-80
2023/02/02 12:24:33;;;;;;;26.38;18.05;;;2.10;92.00;;;;;;5039211;28;20034;-79
2023/02/02 12:27:44;;;;;;;30.95;19.60;;;2.10;92.10;;;;;;5034527;28;20104;-81
2023/02/02 12:30:28;;;;;;;24.92;14.65;;;2.20;92.30;;;;;;4971669;28;20026;-82
2023/02/02 12:33:19;;;;;;;28.50;15.27;;;2.20;92.00;;;;;;5018720;28;20605;-81
2023/02/02 12:35:57;;;;;;;30.33;17.98;;;2.10;91.90;;;;;;5047106;28;20059;-82
2023/02/02 12:39:01;;;;;;;30.00;17.77;;;2.00;92.00;;;;;;5039931;28;20029;-78
2023/02/02 12:42:04;;;;;;;30.30;16.88;;;2.00;92.20;;;;;;5031061;28;20132;-81
2023/02/02 12:44:54;;;;;;;35.90;19.40;;;1.80;91.90;;;;;;5047355;28;20028;-80
2023/02/02 12:47:27;;;;;;;28.45;16.20;;;1.70;92.10;;;;;;5039187;28;20491;-81
2023/02/02 12:50:22;;;;;;;33.65;17.65;;;1.60;92.30;;;;;;5034273;28;20021;-80
2023/02/02 12:53:15;;;;;;;28.77;16.70;;;1.50;92.50;;;;;;5042037;28;20029;-78
2023/02/02 12:55:50;;;;;;;31.00;18.35;;;1.50;92.60;;;;;;5033437;28;20376;-77
2023/02/02 12:58:40;;;;;;;32.22;18.00;;;1.50;92.70;;;;;;5046591;28;20055;-76
2023/02/02 13:01:37;;;;;;;29.33;18.55;;;1.50;93.00;;;;;;5038483;28;20021;-76
2023/02/02 13:04:12;;;;;;;30.23;18.30;;;1.60;93.20;;;;;;5030597;28;20021;-79
2023/02/02 13:06:56;;;;;;;33.22;18.75;;;1.70;93.10;;;;;;5023184;28;20104;-77